Choppington, United Kingdom
Current Conditions -  °F | °C
As of 4:20 PM on Tuesday 21 Oct 2014 (Local Time) from EGNT Reporting Station
Few Clouds Few Clouds  
Wind Chill:   Ceiling: Unl
Heat Index:   Visibility: 6mi
Dew Point:   Wind: 26mph
Humidity: 54%   Direction: 300°WNW
Pressure: 29.59"   Gusts: NA
Location:  55.16°N, 1.6°W
Report Text: EGNT 211520Z 30023KT 9999 FEW034 09/00 Q1002
Loading
Personal Weather Stations






























Interactive Weather Map
Tropical Storm Tracking
New forecast layout! Learn more

10-Day Weather Forecast

Advertisements
Track Severe Weather on mobile